createdAt,value
2023-04-16T00:01:01.251Z,1.85
2023-04-16T00:03:27.889Z,1.60
2023-04-16T00:05:55.912Z,2.30
2023-04-16T00:08:24.658Z,1.70
2023-04-16T00:10:52.637Z,1.83
2023-04-16T00:13:19.156Z,1.55
2023-04-16T00:15:45.750Z,2.22
2023-04-16T00:18:12.217Z,1.98
2023-04-16T00:20:38.683Z,2.10
2023-04-16T00:23:05.232Z,1.92
2023-04-16T00:25:31.678Z,2.20
2023-04-16T00:27:58.135Z,1.83
2023-04-16T00:30:24.607Z,2.50
2023-04-16T00:32:51.062Z,1.70
2023-04-16T00:35:17.634Z,2.05
2023-04-16T00:37:44.080Z,2.13
2023-04-16T00:40:11.066Z,2.20
2023-04-16T00:42:38.114Z,2.20
2023-04-16T00:45:05.576Z,1.95
2023-04-16T00:47:32.121Z,1.90
2023-04-16T00:49:58.598Z,1.42
2023-04-16T00:52:25.994Z,2.15
2023-04-16T00:54:52.611Z,2.00
2023-04-16T00:57:21.004Z,1.75
2023-04-16T00:59:47.523Z,1.65
2023-04-16T01:02:14.332Z,2.00
2023-04-16T01:04:40.852Z,2.00
2023-04-16T01:07:07.375Z,2.00
2023-04-16T01:09:33.830Z,1.90
2023-04-16T01:12:00.358Z,2.00
2023-04-16T01:14:26.834Z,1.80
2023-04-16T01:16:53.332Z,1.70
2023-04-16T01:19:19.787Z,1.85
2023-04-16T01:21:46.650Z,1.50
2023-04-16T01:24:13.118Z,1.90
2023-04-16T01:26:39.579Z,1.60
2023-04-16T01:29:06.361Z,1.83
2023-04-16T01:31:33.019Z,1.77
2023-04-16T01:33:59.577Z,1.88
2023-04-16T01:36:26.861Z,2.42
2023-04-16T01:38:53.328Z,2.22
2023-04-16T01:41:19.947Z,1.95
2023-04-16T01:43:46.398Z,1.95
2023-04-16T01:46:14.302Z,1.80
2023-04-16T01:48:40.799Z,1.83
2023-04-16T01:51:07.258Z,1.98
2023-04-16T01:53:35.799Z,1.70
2023-04-16T01:56:03.610Z,1.77
2023-04-16T01:58:30.700Z,2.38
2023-04-16T02:00:57.279Z,2.08
2023-04-16T02:03:24.886Z,2.20
2023-04-16T02:05:51.634Z,1.80
2023-04-16T02:08:18.248Z,1.95
2023-04-16T02:10:48.958Z,1.80
2023-04-16T02:13:16.224Z,1.52
2023-04-16T02:15:49.929Z,1.98
2023-04-16T02:18:16.503Z,1.80
2023-04-16T02:20:43.511Z,2.03
2023-04-16T02:23:10.258Z,2.13
2023-04-16T02:25:41.245Z,2.00
2023-04-16T02:28:08.875Z,2.10
2023-04-16T02:30:36.555Z,1.77
2023-04-16T02:33:05.451Z,2.20
2023-04-16T02:35:35.163Z,1.73
2023-04-16T02:38:01.955Z,2.22
2023-04-16T02:40:28.573Z,1.80
2023-04-16T02:42:55.611Z,2.10
2023-04-16T02:45:22.192Z,1.90
2023-04-16T02:47:49.037Z,2.00
2023-04-16T02:50:15.984Z,1.95
2023-04-16T02:52:42.460Z,2.40
2023-04-16T02:55:09.691Z,2.20
2023-04-16T02:57:36.435Z,1.92
2023-04-16T03:00:04.948Z,2.10
2023-04-16T03:02:31.843Z,2.08
2023-04-16T03:04:58.477Z,2.35
2023-04-16T03:07:24.961Z,2.15
2023-04-16T03:09:51.512Z,2.05
2023-04-16T03:12:17.961Z,2.13
2023-04-16T03:14:44.401Z,2.22
2023-04-16T03:17:10.889Z,2.10
2023-04-16T03:19:37.338Z,2.10
2023-04-16T03:22:04.044Z,2.80
2023-04-16T03:24:30.594Z,2.58
2023-04-16T03:27:00.116Z,2.60
2023-04-16T03:29:27.180Z,2.05
2023-04-16T03:31:53.647Z,2.60
2023-04-16T03:34:20.416Z,3.33
2023-04-16T03:36:46.910Z,4.18
2023-04-16T03:39:13.362Z,4.93
2023-04-16T03:41:39.853Z,5.20
2023-04-16T03:44:06.308Z,4.65
2023-04-16T03:46:32.844Z,5.15
2023-04-16T03:48:59.420Z,5.20
2023-04-16T03:51:26.438Z,4.90
2023-04-16T03:53:53.052Z,5.55
2023-04-16T03:56:19.519Z,5.47
2023-04-16T03:58:45.996Z,5.18
2023-04-16T04:01:12.454Z,5.28
2023-04-16T04:03:39.087Z,5.53
2023-04-16T04:06:09.064Z,5.22
2023-04-16T04:08:35.573Z,5.30
2023-04-16T04:11:02.069Z,5.95
2023-04-16T04:13:28.570Z,5.30
2023-04-16T04:15:55.163Z,5.00
2023-04-16T04:18:21.724Z,5.90
2023-04-16T04:20:48.232Z,4.78
2023-04-16T04:23:14.699Z,5.70
2023-04-16T04:25:41.172Z,5.70
2023-04-16T04:28:07.637Z,5.03
2023-04-16T04:30:35.727Z,5.55
2023-04-16T04:33:02.331Z,7.13
2023-04-16T04:35:28.864Z,4.93
2023-04-16T04:37:55.618Z,6.05
2023-04-16T04:40:22.089Z,5.30
2023-04-16T04:42:48.548Z,8.63
2023-04-16T04:45:15.179Z,4.72
2023-04-16T04:47:41.682Z,4.38
2023-04-16T04:50:08.509Z,5.28
2023-04-16T04:52:34.980Z,36.28
2023-04-16T04:55:01.661Z,63.58
2023-04-16T04:57:28.164Z,29.85
2023-04-16T04:59:54.616Z,19.17
2023-04-16T05:02:21.183Z,42.25
2023-04-16T05:04:47.713Z,15.80
2023-04-16T05:07:14.208Z,23.60
2023-04-16T05:09:40.673Z,7.80
2023-04-16T05:12:07.162Z,17.50
2023-04-16T05:14:33.659Z,11.45
2023-04-16T05:17:00.272Z,5.07
2023-04-16T05:19:26.862Z,4.60
2023-04-16T05:21:53.336Z,5.05
2023-04-16T05:24:19.965Z,4.95
2023-04-16T05:26:46.467Z,4.93
2023-04-16T05:29:12.916Z,6.03
2023-04-16T05:31:39.424Z,5.75
2023-04-16T05:34:05.897Z,5.50
2023-04-16T05:36:32.354Z,5.20
2023-04-16T05:38:58.788Z,5.45
2023-04-16T05:41:25.510Z,6.25
2023-04-16T05:43:51.998Z,5.40
2023-04-16T05:46:18.510Z,6.28
2023-04-16T05:48:45.354Z,5.95
2023-04-16T05:51:11.904Z,6.15
2023-04-16T05:53:38.381Z,7.90
2023-04-16T05:56:05.363Z,6.13
2023-04-16T05:58:31.876Z,5.88
2023-04-16T06:00:58.368Z,6.95
2023-04-16T06:03:24.948Z,6.30
2023-04-16T06:05:51.761Z,6.30
2023-04-16T06:08:18.270Z,5.53
2023-04-16T06:10:47.469Z,8.20
2023-04-16T06:13:13.951Z,6.88
2023-04-16T06:15:40.429Z,6.05
2023-04-16T06:18:06.931Z,5.82
2023-04-16T06:20:33.460Z,6.22
2023-04-16T06:22:59.970Z,6.72
2023-04-16T06:25:26.427Z,5.90
2023-04-16T06:27:52.877Z,5.72
2023-04-16T06:30:20.014Z,5.82
2023-04-16T06:32:46.587Z,5.97
2023-04-16T06:35:13.124Z,5.95
2023-04-16T06:37:39.612Z,6.05
2023-04-16T06:40:06.545Z,6.43
2023-04-16T06:42:33.082Z,4.88
2023-04-16T06:44:59.532Z,6.15
2023-04-16T06:47:27.074Z,6.63
2023-04-16T06:49:53.663Z,6.78
2023-04-16T06:52:20.130Z,6.18
2023-04-16T06:54:46.586Z,5.35
2023-04-16T06:57:13.051Z,5.80
2023-04-16T06:59:39.606Z,5.60
2023-04-16T07:02:06.603Z,5.97
2023-04-16T07:04:33.158Z,6.00
2023-04-16T07:06:59.613Z,6.72
2023-04-16T07:09:27.195Z,6.78
2023-04-16T07:11:54.176Z,6.45
2023-04-16T07:14:20.628Z,6.63
2023-04-16T07:16:47.138Z,5.68
2023-04-16T07:19:13.641Z,5.80
2023-04-16T07:21:41.981Z,6.18
2023-04-16T07:24:08.506Z,7.97
2023-04-16T07:26:34.999Z,8.98
2023-04-16T07:29:01.465Z,6.55
2023-04-16T07:31:27.965Z,11.73
2023-04-16T07:33:54.450Z,5.82
2023-04-16T07:36:21.189Z,7.97
2023-04-16T07:38:47.669Z,11.25
2023-04-16T07:41:14.506Z,7.97
2023-04-16T07:43:40.960Z,9.10
2023-04-16T07:46:07.564Z,11.38
2023-04-16T07:48:34.059Z,5.63
2023-04-16T07:51:00.613Z,12.07
2023-04-16T07:53:27.100Z,15.25
2023-04-16T07:55:53.571Z,7.05
2023-04-16T07:58:20.039Z,7.13
2023-04-16T08:00:46.499Z,4.85
2023-04-16T08:03:13.104Z,5.40
2023-04-16T08:05:39.749Z,4.60
2023-04-16T08:08:06.321Z,4.82
2023-04-16T08:10:33.265Z,4.75
2023-04-16T08:13:02.772Z,4.60
2023-04-16T08:15:29.477Z,4.88
2023-04-16T08:17:56.030Z,5.28
2023-04-16T08:20:22.582Z,3.83
2023-04-16T08:22:49.208Z,4.00
2023-04-16T08:25:15.681Z,4.47
2023-04-16T08:27:42.140Z,4.10
2023-04-16T08:30:08.963Z,3.72
2023-04-16T08:32:35.436Z,3.53
2023-04-16T08:35:02.056Z,3.67
2023-04-16T08:37:28.525Z,3.45
2023-04-16T08:39:55.032Z,3.40
2023-04-16T08:42:32.467Z,3.38
2023-04-16T08:45:09.273Z,3.40
2023-04-16T08:47:38.699Z,2.90
2023-04-16T08:50:05.974Z,3.33
2023-04-16T08:52:32.689Z,3.00
2023-04-16T08:55:07.131Z,3.33
2023-04-16T08:57:47.268Z,3.47
2023-04-16T09:00:14.115Z,3.60
2023-04-16T09:02:40.824Z,3.25
2023-04-16T09:05:07.920Z,3.22
2023-04-16T09:07:34.720Z,3.60
2023-04-16T09:10:04.021Z,3.72
2023-04-16T09:12:30.876Z,3.60
2023-04-16T09:14:58.642Z,3.67
2023-04-16T09:17:25.139Z,4.07
2023-04-16T09:19:51.603Z,3.95
2023-04-16T09:22:18.128Z,4.38
2023-04-16T09:24:44.588Z,4.45
2023-04-16T09:27:12.102Z,4.28
2023-04-16T09:29:40.499Z,4.35
2023-04-16T09:32:08.460Z,5.05
2023-04-16T09:34:35.928Z,4.53
2023-04-16T09:37:14.976Z,4.57
2023-04-16T09:39:42.745Z,4.22
2023-04-16T09:42:09.513Z,4.40
2023-04-16T09:44:38.837Z,4.30
2023-04-16T09:47:08.981Z,5.15
2023-04-16T09:49:38.704Z,4.80
2023-04-16T09:52:05.432Z,4.72
2023-04-16T09:54:31.901Z,4.57
2023-04-16T09:56:58.355Z,4.50
2023-04-16T09:59:25.590Z,4.65
2023-04-16T10:02:14.936Z,4.32
2023-04-16T10:04:51.665Z,4.80
2023-04-16T10:07:18.539Z,4.57
2023-04-16T10:09:48.408Z,4.70
2023-04-16T10:12:14.934Z,5.45
2023-04-16T10:14:41.757Z,4.85
2023-04-16T10:17:09.134Z,5.18
2023-04-16T10:19:35.977Z,4.85
2023-04-16T10:22:02.978Z,4.57
2023-04-16T10:24:30.210Z,4.80
2023-04-16T10:26:56.971Z,4.70
2023-04-16T10:29:23.534Z,4.05
2023-04-16T10:31:50.148Z,4.68
2023-04-16T10:34:16.822Z,4.57
2023-04-16T10:36:43.324Z,4.47
2023-04-16T10:39:17.039Z,4.50
2023-04-16T10:41:43.880Z,4.57
2023-04-16T10:44:10.462Z,4.13
2023-04-16T10:46:41.531Z,4.10
2023-04-16T10:49:23.309Z,4.30
2023-04-16T10:51:57.197Z,3.90
2023-04-16T10:54:27.321Z,4.13
2023-04-16T10:56:56.107Z,4.15
2023-04-16T10:59:23.143Z,4.45
2023-04-16T11:01:56.924Z,4.32
2023-04-16T11:04:33.202Z,3.72
2023-04-16T11:07:15.057Z,3.88
2023-04-16T11:09:50.491Z,4.00
2023-04-16T11:12:18.648Z,3.70
2023-04-16T11:14:58.124Z,3.78
2023-04-16T11:17:33.118Z,4.00
2023-04-16T11:19:59.624Z,4.20
2023-04-16T11:22:26.174Z,3.80
2023-04-16T11:24:56.413Z,4.43
2023-04-16T11:27:24.105Z,4.13
2023-04-16T11:30:27.972Z,4.35
2023-04-16T11:32:54.483Z,3.80
2023-04-16T11:35:21.064Z,3.90
2023-04-16T11:37:50.606Z,4.25
2023-04-16T11:40:17.084Z,4.22
2023-04-16T11:42:44.278Z,4.20
2023-04-16T11:45:11.884Z,4.18
2023-04-16T11:47:51.892Z,4.88
2023-04-16T11:50:22.629Z,4.32
2023-04-16T11:52:49.759Z,4.57
2023-04-16T11:55:16.647Z,4.30
2023-04-16T11:57:43.152Z,4.43
2023-04-16T12:00:14.068Z,4.45
2023-04-16T12:02:44.212Z,4.05
2023-04-16T12:05:30.983Z,4.38
2023-04-16T12:07:58.083Z,4.35
2023-04-16T12:10:24.664Z,4.07
2023-04-16T12:12:51.122Z,4.70
2023-04-16T12:15:17.574Z,4.88
2023-04-16T12:17:44.085Z,4.65
2023-04-16T12:20:11.814Z,5.03
2023-04-16T12:22:40.313Z,4.30
2023-04-16T12:25:16.871Z,4.00
2023-04-16T12:27:46.890Z,4.55
2023-04-16T12:30:14.817Z,4.60
2023-04-16T12:32:41.901Z,4.38
2023-04-16T12:35:09.945Z,5.00
2023-04-16T12:37:37.215Z,5.35
2023-04-16T12:40:05.049Z,5.22
2023-04-16T12:42:35.841Z,5.38
2023-04-16T12:45:04.026Z,5.22
2023-04-16T12:47:31.502Z,5.20
2023-04-16T12:49:58.052Z,5.28
2023-04-16T12:52:25.197Z,4.75
2023-04-16T12:54:52.259Z,5.20
2023-04-16T12:57:18.980Z,5.10
2023-04-16T12:59:46.939Z,5.20
2023-04-16T13:02:13.775Z,4.88
2023-04-16T13:04:40.516Z,5.18
2023-04-16T13:07:07.190Z,5.40
2023-04-16T13:09:33.636Z,5.65
2023-04-16T13:12:00.273Z,5.07
2023-04-16T13:14:26.742Z,5.40
2023-04-16T13:16:53.230Z,5.30
2023-04-16T13:19:19.718Z,5.47
2023-04-16T13:21:46.240Z,5.25
2023-04-16T13:24:12.691Z,5.78
2023-04-16T13:26:39.164Z,6.03
2023-04-16T13:29:05.663Z,5.75
2023-04-16T13:31:32.167Z,6.05
2023-04-16T13:33:58.681Z,6.05
2023-04-16T13:36:27.572Z,6.03
2023-04-16T13:38:54.533Z,5.63
2023-04-16T13:41:21.003Z,6.10
2023-04-16T13:43:47.530Z,6.07
2023-04-16T13:46:14.016Z,6.65
2023-04-16T13:48:40.611Z,6.20
2023-04-16T13:51:08.172Z,5.75
2023-04-16T13:53:34.626Z,6.50
2023-04-16T13:56:03.570Z,6.55
2023-04-16T13:58:30.360Z,6.15
2023-04-16T14:00:56.859Z,5.65
2023-04-16T14:03:24.834Z,5.97
2023-04-16T14:05:51.381Z,6.50
2023-04-16T14:08:17.832Z,7.00
2023-04-16T14:10:44.292Z,6.95
2023-04-16T14:13:11.009Z,6.55
2023-04-16T14:15:37.464Z,6.32
2023-04-16T14:18:04.120Z,7.03
2023-04-16T14:20:30.747Z,6.32
2023-04-16T14:22:57.391Z,6.60
2023-04-16T14:25:23.990Z,7.72
2023-04-16T14:27:51.157Z,7.32
2023-04-16T14:30:17.728Z,6.95
2023-04-16T14:32:44.304Z,6.75
2023-04-16T14:35:10.842Z,7.68
2023-04-16T14:37:38.336Z,7.95
2023-04-16T14:40:08.177Z,7.15
2023-04-16T14:42:36.621Z,7.65
2023-04-16T14:45:06.331Z,8.25
2023-04-16T14:47:34.240Z,8.13
2023-04-16T14:50:01.303Z,6.90
2023-04-16T14:52:30.349Z,7.22
2023-04-16T14:54:57.084Z,7.20
2023-04-16T14:57:23.646Z,6.93
2023-04-16T14:59:50.443Z,7.07
2023-04-16T15:02:16.992Z,7.45
2023-04-16T15:04:43.572Z,7.70
2023-04-16T15:07:10.319Z,7.00
2023-04-16T15:09:36.826Z,7.50
2023-04-16T15:12:04.169Z,6.72
2023-04-16T15:14:30.763Z,7.30
2023-04-16T15:16:57.267Z,6.68
2023-04-16T15:19:23.751Z,8.30
2023-04-16T15:21:50.389Z,7.68
2023-04-16T15:24:16.860Z,7.82
2023-04-16T15:26:43.421Z,8.65
2023-04-16T15:29:09.989Z,8.55
2023-04-16T15:31:36.430Z,7.72
2023-04-16T15:34:02.920Z,7.70
2023-04-16T15:36:29.407Z,6.68
2023-04-16T15:38:56.165Z,7.80
2023-04-16T15:41:22.674Z,7.00
2023-04-16T15:43:49.359Z,7.15
2023-04-16T15:46:16.241Z,9.32
2023-04-16T15:48:42.760Z,11.38
2023-04-16T15:51:09.242Z,8.65
2023-04-16T15:53:35.741Z,7.57
2023-04-16T15:56:02.205Z,7.78
2023-04-16T15:58:28.672Z,7.30
2023-04-16T16:00:55.346Z,8.38
2023-04-16T16:03:21.910Z,7.25
2023-04-16T16:05:48.681Z,7.35
2023-04-16T16:08:15.612Z,6.25
2023-04-16T16:10:42.442Z,7.25
2023-04-16T16:13:12.985Z,7.25
2023-04-16T16:15:40.895Z,6.90
2023-04-16T16:18:07.515Z,6.78
2023-04-16T16:20:34.804Z,6.68
2023-04-16T16:23:01.377Z,6.82
2023-04-16T16:25:28.032Z,6.43
2023-04-16T16:27:54.526Z,6.15
2023-04-16T16:30:21.024Z,9.13
2023-04-16T16:32:47.508Z,6.55
2023-04-16T16:35:14.020Z,6.38
2023-04-16T16:37:40.598Z,7.13
2023-04-16T16:40:07.722Z,6.47
2023-04-16T16:42:34.375Z,7.15
2023-04-16T16:45:05.057Z,6.72
2023-04-16T16:47:32.379Z,7.53
2023-04-16T16:50:00.089Z,7.38
2023-04-16T16:52:28.685Z,7.60
2023-04-16T16:54:56.705Z,7.45
2023-04-16T16:57:26.246Z,7.50
2023-04-16T16:59:54.254Z,6.93
2023-04-16T17:02:20.761Z,7.22
2023-04-16T17:04:47.304Z,9.63
2023-04-16T17:07:13.776Z,7.97
2023-04-16T17:09:40.373Z,8.57
2023-04-16T17:12:06.845Z,8.02
2023-04-16T17:14:33.569Z,8.65
2023-04-16T17:17:00.311Z,8.18
2023-04-16T17:19:27.394Z,7.43
2023-04-16T17:21:54.286Z,7.75
2023-04-16T17:24:20.983Z,6.75
2023-04-16T17:26:47.516Z,7.45
2023-04-16T17:29:14.018Z,7.97
2023-04-16T17:31:40.643Z,7.78
2023-04-16T17:34:07.166Z,7.95
2023-04-16T17:36:33.636Z,11.23
2023-04-16T17:39:00.173Z,36.38
2023-04-16T17:41:26.683Z,26.30
2023-04-16T17:43:53.272Z,18.58
2023-04-16T17:46:19.935Z,11.38
2023-04-16T17:48:48.716Z,8.32
2023-04-16T17:51:16.461Z,9.57
2023-04-16T17:53:43.472Z,7.80
2023-04-16T17:56:10.554Z,7.05
2023-04-16T17:58:37.126Z,8.25
2023-04-16T18:01:03.770Z,7.22
2023-04-16T18:03:31.240Z,7.93
2023-04-16T18:05:57.882Z,7.78
2023-04-16T18:08:24.578Z,7.45
2023-04-16T18:10:51.491Z,7.03
2023-04-16T18:13:18.363Z,7.80
2023-04-16T18:15:44.851Z,8.25
2023-04-16T18:18:11.347Z,7.38
2023-04-16T18:20:37.858Z,6.85
2023-04-16T18:23:04.327Z,6.97
2023-04-16T18:25:35.043Z,6.45
2023-04-16T18:28:03.549Z,6.03
2023-04-16T18:30:30.067Z,6.25
2023-04-16T18:33:19.492Z,6.47
2023-04-16T18:35:43.048Z,7.03
2023-04-16T18:38:09.594Z,8.05
2023-04-16T18:40:36.702Z,8.75
2023-04-16T18:43:03.702Z,7.45
2023-04-16T18:45:30.871Z,8.30
2023-04-16T18:48:00.206Z,9.32
2023-04-16T18:50:26.715Z,7.90
2023-04-16T18:52:53.177Z,7.50
2023-04-16T18:55:20.029Z,8.00
2023-04-16T18:57:46.582Z,8.98
2023-04-16T19:00:13.667Z,8.90
2023-04-16T19:02:40.586Z,7.97
2023-04-16T19:05:08.178Z,7.55
2023-04-16T19:07:35.258Z,8.30
2023-04-16T19:10:04.826Z,7.22
2023-04-16T19:12:31.848Z,6.55
2023-04-16T19:14:58.364Z,5.95
2023-04-16T19:17:24.871Z,6.65
2023-04-16T19:19:51.561Z,6.80
2023-04-16T19:22:18.009Z,6.53
2023-04-16T19:24:44.556Z,6.20
2023-04-16T19:27:11.112Z,6.28
2023-04-16T19:29:37.570Z,6.38
2023-04-16T19:32:04.204Z,5.47
2023-04-16T19:34:30.958Z,5.57
2023-04-16T19:36:57.560Z,5.70
2023-04-16T19:39:29.988Z,6.50
2023-04-16T19:41:56.507Z,6.68
2023-04-16T19:44:23.212Z,6.72
2023-04-16T19:46:50.200Z,6.22
2023-04-16T19:49:16.719Z,7.07
2023-04-16T19:51:43.258Z,6.63
2023-04-16T19:54:09.752Z,6.45
2023-04-16T19:56:36.552Z,5.65
2023-04-16T19:59:03.116Z,6.00
2023-04-16T20:01:31.193Z,6.28
2023-04-16T20:03:57.790Z,6.63
2023-04-16T20:06:25.215Z,6.60
2023-04-16T20:08:51.711Z,6.50
2023-04-16T20:11:18.187Z,6.55
2023-04-16T20:13:47.997Z,7.53
2023-04-16T20:16:14.642Z,7.97
2023-04-16T20:18:42.461Z,6.93
2023-04-16T20:21:09.451Z,6.93
2023-04-16T20:23:35.964Z,7.38
2023-04-16T20:26:02.458Z,6.90
2023-04-16T20:28:28.907Z,7.18
2023-04-16T20:30:55.514Z,5.68
2023-04-16T20:33:22.015Z,7.35
2023-04-16T20:35:50.747Z,7.95
2023-04-16T20:38:18.295Z,8.60
2023-04-16T20:40:45.006Z,7.32
2023-04-16T20:43:14.071Z,8.30
2023-04-16T20:45:40.976Z,8.45
2023-04-16T20:48:07.836Z,6.63
2023-04-16T20:50:34.365Z,8.40
2023-04-16T20:53:00.816Z,7.13
2023-04-16T20:55:27.357Z,6.63
2023-04-16T20:57:53.842Z,7.45
2023-04-16T21:00:20.559Z,7.78
2023-04-16T21:02:47.109Z,8.45
2023-04-16T21:05:14.598Z,7.88
2023-04-16T21:07:41.757Z,8.13
2023-04-16T21:10:09.611Z,8.27
2023-04-16T21:12:36.462Z,8.07
2023-04-16T21:15:03.972Z,8.65
2023-04-16T21:17:30.523Z,7.43
2023-04-16T21:19:57.086Z,7.10
2023-04-16T21:22:23.635Z,6.85
2023-04-16T21:24:50.092Z,7.13
2023-04-16T21:27:16.599Z,8.20
2023-04-16T21:29:43.079Z,7.95
2023-04-16T21:32:09.561Z,7.18
2023-04-16T21:34:36.021Z,7.55
2023-04-16T21:37:02.813Z,8.60
2023-04-16T21:39:30.885Z,8.07
2023-04-16T21:41:57.973Z,8.85
2023-04-16T21:44:24.752Z,8.50
2023-04-16T21:46:51.567Z,7.13
2023-04-16T21:49:18.127Z,7.60
2023-04-16T21:51:46.068Z,8.07
2023-04-16T21:54:12.586Z,7.53
2023-04-16T21:56:39.095Z,7.55
2023-04-16T21:59:05.603Z,6.10
2023-04-16T22:01:32.140Z,7.10
2023-04-16T22:03:58.762Z,7.88
2023-04-16T22:06:27.035Z,7.45
2023-04-16T22:08:53.540Z,7.82
2023-04-16T22:11:20.005Z,7.35
2023-04-16T22:13:47.784Z,7.97
2023-04-16T22:16:14.418Z,7.47
2023-04-16T22:18:41.118Z,6.97
2023-04-16T22:21:07.708Z,8.32
2023-04-16T22:23:34.217Z,8.13
2023-04-16T22:26:02.669Z,8.25
2023-04-16T22:28:29.212Z,9.57
2023-04-16T22:30:56.330Z,10.05
2023-04-16T22:33:22.785Z,8.98
2023-04-16T22:35:49.257Z,9.65
2023-04-16T22:38:16.445Z,11.95
2023-04-16T22:40:42.948Z,9.90
2023-04-16T22:43:09.448Z,9.95
2023-04-16T22:45:37.390Z,8.25
2023-04-16T22:48:04.156Z,9.88
2023-04-16T22:50:31.971Z,10.13
2023-04-16T22:52:58.463Z,8.45
2023-04-16T22:55:24.930Z,8.77
2023-04-16T22:57:51.468Z,8.18
2023-04-16T23:00:18.265Z,9.52
2023-04-16T23:02:44.934Z,8.35
2023-04-16T23:05:11.747Z,8.77
2023-04-16T23:07:38.338Z,10.88
2023-04-16T23:10:05.395Z,8.82
2023-04-16T23:12:31.901Z,10.35
2023-04-16T23:15:00.418Z,10.45
2023-04-16T23:17:27.185Z,11.75
2023-04-16T23:19:53.722Z,9.25
2023-04-16T23:22:20.180Z,9.10
2023-04-16T23:24:46.804Z,8.45
2023-04-16T23:27:13.255Z,12.35
2023-04-16T23:29:39.783Z,8.60
2023-04-16T23:32:06.371Z,8.55
2023-04-16T23:34:32.812Z,11.07
2023-04-16T23:36:59.300Z,11.00
2023-04-16T23:39:26.154Z,8.85
2023-04-16T23:41:52.633Z,11.07
2023-04-16T23:44:19.122Z,9.52
2023-04-16T23:46:45.808Z,8.55
2023-04-16T23:49:12.398Z,8.27
2023-04-16T23:51:38.884Z,7.85
2023-04-16T23:54:05.361Z,7.88
2023-04-16T23:56:31.866Z,7.18
2023-04-16T23:58:58.379Z,6.97
